Time;durP1;ratioP1;P1;durP2;ratioP2;P2;SDS_P1;SDS_P2;PMS_P1;PMS_P2;Temp;Humidity;BMP_temperature;BMP_pressure;BME280_temperature;BME280_humidity;BME280_pressure;Samples;Min_cycle;Max_cycle;Signal;HPM_P1;HPM_P2
2022/03/03 00:01:51;;;;;;;24.30;15.53;;;8.40;76.70;;;;;;6122046;23;20138;-87
2022/03/03 00:04:20;;;;;;;27.33;15.17;;;8.20;77.30;;;;;;6123089;23;20139;-86
2022/03/03 00:06:50;;;;;;;24.83;15.47;;;8.10;77.40;;;;;;6121929;23;20145;-86
2022/03/03 00:09:15;;;;;;;26.57;15.17;;;8.10;77.70;;;;;;6121687;23;20227;-87
2022/03/03 00:11:42;;;;;;;24.70;15.17;;;8.00;77.50;;;;;;6121900;23;20571;-87
2022/03/03 00:14:11;;;;;;;25.47;15.30;;;8.10;77.60;;;;;;6122217;23;20192;-86
2022/03/03 00:16:37;;;;;;;25.80;14.67;;;8.10;78.20;;;;;;6122048;23;20168;-85
2022/03/03 00:19:05;;;;;;;23.73;14.97;;;8.20;78.10;;;;;;6121652;23;20169;-87
2022/03/03 00:21:32;;;;;;;28.30;15.83;;;8.30;78.00;;;;;;6122313;23;20566;-87
2022/03/03 00:23:59;;;;;;;27.97;15.63;;;8.20;78.10;;;;;;6121771;23;20150;-87
2022/03/03 00:26:26;;;;;;;28.50;15.77;;;8.30;77.60;;;;;;6121923;23;20183;-84
2022/03/03 00:28:52;;;;;;;24.17;14.00;;;8.40;77.20;;;;;;6121797;23;20181;-86
2022/03/03 00:31:18;;;;;;;29.77;15.13;;;8.30;77.40;;;;;;6122149;23;20149;-87
2022/03/03 00:33:47;;;;;;;24.23;14.50;;;8.50;76.50;;;;;;6121751;23;20502;-85
2022/03/03 00:36:16;;;;;;;24.60;15.27;;;8.30;78.20;;;;;;6122077;23;20160;-85
2022/03/03 00:38:41;;;;;;;28.60;15.47;;;8.20;79.20;;;;;;6122218;23;20160;-84
2022/03/03 00:41:08;;;;;;;26.47;15.83;;;8.10;79.00;;;;;;6122204;23;20150;-84
2022/03/03 00:43:37;;;;;;;23.53;14.47;;;8.20;79.40;;;;;;6121981;23;20179;-85
2022/03/03 00:46:03;;;;;;;23.43;14.40;;;8.00;79.40;;;;;;6121805;23;20316;-85
2022/03/03 00:48:30;;;;;;;24.27;15.03;;;7.80;80.50;;;;;;6121657;23;20216;-85
2022/03/03 00:51:00;;;;;;;25.03;15.87;;;7.80;80.60;;;;;;6122099;23;20154;-84
2022/03/03 00:53:28;;;;;;;23.37;15.47;;;7.80;80.70;;;;;;6120585;23;20146;-84
2022/03/03 00:55:55;;;;;;;27.27;14.13;;;7.80;80.90;;;;;;6121817;23;20148;-87
2022/03/03 00:58:21;;;;;;;25.73;15.10;;;8.00;80.10;;;;;;6121753;23;20157;-86
2022/03/03 01:00:49;;;;;;;25.43;15.30;;;7.90;80.40;;;;;;6121639;23;20150;-86
2022/03/03 01:03:15;;;;;;;29.27;15.23;;;7.90;80.10;;;;;;6122262;23;20612;-84
2022/03/03 01:05:42;;;;;;;27.23;14.57;;;7.90;80.50;;;;;;6121532;23;20157;-84
2022/03/03 01:08:10;;;;;;;24.83;14.07;;;7.90;81.10;;;;;;6121173;23;20207;-86
2022/03/03 01:10:37;;;;;;;22.20;14.53;;;7.90;81.20;;;;;;6121922;23;20237;-87
2022/03/03 01:13:06;;;;;;;27.40;15.73;;;7.90;81.00;;;;;;6121694;23;20144;-87
2022/03/03 01:15:32;;;;;;;25.07;14.83;;;7.80;81.80;;;;;;6121866;23;20145;-86
2022/03/03 01:17:59;;;;;;;24.80;14.60;;;7.90;80.70;;;;;;6121950;23;20215;-86
2022/03/03 01:20:28;;;;;;;21.97;14.10;;;7.70;81.50;;;;;;6121656;23;20150;-87
2022/03/03 01:22:55;;;;;;;25.83;14.13;;;7.50;82.50;;;;;;6121739;23;20153;-84
2022/03/03 01:25:21;;;;;;;25.60;15.17;;;7.40;82.60;;;;;;6121715;23;20161;-84
2022/03/03 01:27:53;;;;;;;26.57;14.83;;;7.40;83.10;;;;;;6121810;23;20153;-86
2022/03/03 01:30:18;;;;;;;24.00;14.27;;;7.20;83.60;;;;;;6121720;23;20165;-86
2022/03/03 01:32:44;;;;;;;27.13;14.80;;;7.30;82.10;;;;;;6121707;23;20179;-86
2022/03/03 01:35:13;;;;;;;23.63;14.70;;;7.30;82.40;;;;;;6121723;23;20157;-84
2022/03/03 01:37:42;;;;;;;26.37;14.67;;;7.20;83.00;;;;;;6121317;23;20570;-84
2022/03/03 01:40:08;;;;;;;28.53;15.67;;;7.20;83.00;;;;;;6122081;23;20203;-85
2022/03/03 01:42:35;;;;;;;26.00;14.87;;;7.10;84.20;;;;;;6121701;23;20238;-86
2022/03/03 01:45:04;;;;;;;23.10;15.30;;;7.20;83.60;;;;;;6121412;23;20570;-86
2022/03/03 01:47:30;;;;;;;29.80;14.93;;;7.00;84.00;;;;;;6121570;23;20230;-86
2022/03/03 01:49:57;;;;;;;23.17;15.10;;;7.10;83.30;;;;;;6121380;23;20196;-87
2022/03/03 01:52:26;;;;;;;22.20;13.53;;;7.10;83.60;;;;;;6122149;23;20155;-86
2022/03/03 01:54:53;;;;;;;23.20;14.40;;;7.50;80.50;;;;;;6121610;23;20173;-86
2022/03/03 01:57:20;;;;;;;22.70;14.37;;;7.80;80.50;;;;;;6122113;23;20180;-87
2022/03/03 01:59:47;;;;;;;23.83;14.17;;;7.70;80.80;;;;;;6121383;23;20161;-86
2022/03/03 02:02:15;;;;;;;25.73;14.37;;;7.90;78.80;;;;;;6121897;23;20170;-87
2022/03/03 02:04:43;;;;;;;24.57;14.43;;;8.10;78.40;;;;;;6121068;23;20458;-86
2022/03/03 02:07:10;;;;;;;25.27;14.93;;;8.20;77.80;;;;;;6121734;23;20144;-85
2022/03/03 02:09:39;;;;;;;26.60;14.40;;;8.00;79.40;;;;;;6123372;23;20181;-84
2022/03/03 02:12:05;;;;;;;22.27;14.07;;;7.90;81.50;;;;;;6122970;23;20147;-85
2022/03/03 02:14:43;;;;;;;25.13;14.90;;;7.50;83.00;;;;;;6121770;23;20624;-85
2022/03/03 02:17:09;;;;;;;22.97;15.00;;;7.40;83.70;;;;;;6121966;23;20166;-85
2022/03/03 02:19:35;;;;;;;26.53;14.73;;;7.30;83.60;;;;;;6120991;23;20234;-84
2022/03/03 02:22:02;;;;;;;26.43;15.03;;;7.20;83.60;;;;;;6121555;23;20198;-86
2022/03/03 02:24:29;;;;;;;27.77;15.30;;;7.10;83.10;;;;;;6121688;23;20156;-84
2022/03/03 02:27:00;;;;;;;28.00;15.83;;;6.90;84.00;;;;;;6122159;23;20178;-84
2022/03/03 02:29:28;;;;;;;23.13;14.13;;;6.70;84.90;;;;;;6121319;23;20196;-85
2022/03/03 02:31:54;;;;;;;21.13;14.63;;;6.80;83.60;;;;;;6121398;23;20167;-84
2022/03/03 02:34:21;;;;;;;25.13;14.77;;;6.60;85.70;;;;;;6121134;23;20157;-84
2022/03/03 02:36:47;;;;;;;26.90;15.03;;;6.40;86.10;;;;;;6121440;23;20180;-87
2022/03/03 02:39:14;;;;;;;23.77;14.57;;;6.70;85.60;;;;;;6121668;23;20146;-85
2022/03/03 02:41:43;;;;;;;29.83;15.17;;;6.60;85.20;;;;;;6121729;23;20144;-85
2022/03/03 02:44:10;;;;;;;22.03;14.30;;;6.60;85.60;;;;;;6121318;23;20156;-84
2022/03/03 02:46:36;;;;;;;24.20;14.30;;;6.50;85.30;;;;;;6121727;23;20168;-84
2022/03/03 02:49:09;;;;;;;25.40;14.67;;;6.50;85.20;;;;;;6120863;23;20211;-85
2022/03/03 02:51:37;;;;;;;23.70;14.93;;;6.50;85.90;;;;;;6121006;23;20647;-86
2022/03/03 02:54:03;;;;;;;25.47;15.67;;;6.40;86.40;;;;;;6121573;23;20183;-86
2022/03/03 02:57:53;;;;;;;25.30;14.17;;;6.30;86.90;;;;;;6121382;23;20558;-84
2022/03/03 02:59:19;;;;;;;26.17;14.00;;;6.20;87.90;;;;;;6122063;23;20165;-84
2022/03/03 03:01:44;;;;;;;29.93;14.00;;;6.20;88.00;;;;;;6121000;23;20187;-87
2022/03/03 03:04:11;;;;;;;21.93;14.10;;;6.10;89.00;;;;;;6121238;23;20152;-84
2022/03/03 03:06:38;;;;;;;24.17;14.37;;;6.10;89.10;;;;;;6120982;23;20150;-84
2022/03/03 03:09:04;;;;;;;23.13;14.00;;;6.20;88.30;;;;;;6121283;23;20186;-84
2022/03/03 03:11:30;;;;;;;24.97;14.50;;;6.20;88.80;;;;;;6121342;23;20173;-86
2022/03/03 03:13:55;;;;;;;23.40;13.93;;;6.00;89.10;;;;;;6121415;23;20576;-86
2022/03/03 03:16:23;;;;;;;26.77;15.67;;;6.00;88.70;;;;;;6123199;23;20138;-86
2022/03/03 03:18:50;;;;;;;28.73;15.83;;;6.10;88.60;;;;;;6122286;23;20141;-87
2022/03/03 03:21:15;;;;;;;22.83;14.00;;;6.10;88.80;;;;;;6122383;23;20188;-85
2022/03/03 03:23:43;;;;;;;22.73;14.13;;;6.10;89.20;;;;;;6122827;23;20149;-85
2022/03/03 03:26:10;;;;;;;21.40;14.70;;;6.00;89.60;;;;;;6122439;23;20149;-87
2022/03/03 03:28:35;;;;;;;25.67;14.67;;;6.00;88.70;;;;;;6122355;23;20242;-84
2022/03/03 03:31:04;;;;;;;24.93;14.20;;;6.20;88.30;;;;;;6122167;23;20167;-87
2022/03/03 03:33:30;;;;;;;25.33;15.43;;;6.20;88.10;;;;;;6121666;23;20167;-84
2022/03/03 03:35:56;;;;;;;24.80;15.20;;;6.10;88.30;;;;;;6121952;23;20610;-84
2022/03/03 03:38:26;;;;;;;22.33;13.67;;;6.10;88.90;;;;;;6122215;23;20145;-84
2022/03/03 03:40:53;;;;;;;24.73;14.87;;;6.50;86.20;;;;;;6122295;23;20602;-87
2022/03/03 03:43:18;;;;;;;24.03;14.70;;;6.50;86.90;;;;;;6122238;23;20152;-87
2022/03/03 03:45:44;;;;;;;22.07;13.87;;;6.20;87.90;;;;;;6122456;23;20171;-83
2022/03/03 03:48:16;;;;;;;23.53;14.50;;;6.10;88.40;;;;;;6121785;23;20148;-84
2022/03/03 03:50:43;;;;;;;24.57;14.17;;;6.00;88.90;;;;;;6121999;23;20584;-84
2022/03/03 03:53:10;;;;;;;26.63;14.13;;;6.00;89.00;;;;;;6122448;23;20231;-84
2022/03/03 03:55:36;;;;;;;22.37;14.33;;;5.70;89.30;;;;;;6121986;23;20155;-87
2022/03/03 03:58:02;;;;;;;26.30;14.80;;;5.70;90.40;;;;;;6121976;23;20153;-86
2022/03/03 04:00:29;;;;;;;23.57;13.97;;;5.70;90.40;;;;;;6121649;23;20589;-87
2022/03/03 04:02:56;;;;;;;23.20;14.57;;;5.50;90.70;;;;;;6122185;23;20147;-86
2022/03/03 04:05:23;;;;;;;24.63;14.23;;;5.40;91.20;;;;;;6122023;23;20150;-87
2022/03/03 04:07:50;;;;;;;22.90;14.33;;;5.30;91.20;;;;;;6122055;23;20159;-84
2022/03/03 04:10:17;;;;;;;23.87;14.07;;;5.20;91.10;;;;;;6122542;23;20187;-86
2022/03/03 04:12:43;;;;;;;24.13;14.83;;;5.30;91.20;;;;;;6121962;23;20151;-86
2022/03/03 04:15:10;;;;;;;22.27;13.63;;;5.30;91.40;;;;;;6122378;23;20584;-86
2022/03/03 04:17:38;;;;;;;30.03;14.37;;;5.40;91.40;;;;;;6122513;23;20235;-86
2022/03/03 04:20:08;;;;;;;26.53;14.23;;;5.60;90.70;;;;;;6121802;23;20182;-86
2022/03/03 04:22:34;;;;;;;21.30;14.03;;;5.90;89.00;;;;;;6121974;23;20149;-86
2022/03/03 04:25:02;;;;;;;23.60;14.47;;;6.00;89.80;;;;;;6122228;23;20178;-86
2022/03/03 04:27:31;;;;;;;23.17;13.97;;;5.90;90.20;;;;;;6122113;23;20646;-87
2022/03/03 04:29:56;;;;;;;23.33;14.80;;;5.60;91.40;;;;;;6121715;23;20191;-85
2022/03/03 04:32:22;;;;;;;20.87;14.53;;;5.50;91.30;;;;;;6121626;23;20178;-87
2022/03/03 04:34:48;;;;;;;26.33;14.63;;;5.40;91.40;;;;;;6122276;23;20192;-87
2022/03/03 04:37:13;;;;;;;23.80;13.97;;;5.40;91.50;;;;;;6122205;23;20175;-86
2022/03/03 04:39:39;;;;;;;25.00;14.77;;;5.30;91.80;;;;;;6121625;23;20145;-85
2022/03/03 04:42:07;;;;;;;22.17;14.10;;;5.40;91.90;;;;;;6122198;23;20161;-86
2022/03/03 04:44:33;;;;;;;22.53;13.70;;;5.40;91.70;;;;;;6122038;23;20151;-86
2022/03/03 04:47:02;;;;;;;22.87;14.20;;;5.50;91.70;;;;;;6121867;23;20180;-86
2022/03/03 04:49:31;;;;;;;24.37;13.97;;;5.50;91.90;;;;;;6121722;23;20265;-86
2022/03/03 04:51:57;;;;;;;25.70;14.37;;;5.50;92.10;;;;;;6121731;23;20231;-84
2022/03/03 04:54:23;;;;;;;23.83;13.63;;;5.40;92.50;;;;;;6122389;23;20173;-87
2022/03/03 04:56:51;;;;;;;24.03;14.37;;;5.40;92.70;;;;;;6123527;23;20158;-86
2022/03/03 04:59:19;;;;;;;23.23;13.93;;;5.40;92.50;;;;;;6121775;23;20171;-84
2022/03/03 05:01:46;;;;;;;24.17;13.87;;;5.40;92.60;;;;;;6121487;23;20158;-86
2022/03/03 05:04:12;;;;;;;21.57;14.40;;;5.30;92.80;;;;;;6121713;23;20151;-86
2022/03/03 05:06:40;;;;;;;25.93;14.13;;;5.30;92.90;;;;;;6121986;23;20212;-86
2022/03/03 05:09:12;;;;;;;23.80;13.60;;;5.40;92.80;;;;;;6121556;23;20177;-87
2022/03/03 05:11:39;;;;;;;27.10;16.13;;;5.40;92.10;;;;;;6123130;23;20204;-86
2022/03/03 05:14:05;;;;;;;23.23;13.70;;;5.30;92.60;;;;;;6122215;23;20153;-86
2022/03/03 05:16:31;;;;;;;24.00;14.13;;;5.30;92.40;;;;;;6121631;23;20202;-86
2022/03/03 05:18:58;;;;;;;21.43;13.60;;;5.40;92.20;;;;;;6121877;23;20148;-85
2022/03/03 05:21:27;;;;;;;27.87;14.23;;;5.30;92.20;;;;;;6122109;23;20243;-86
2022/03/03 05:23:54;;;;;;;24.93;14.60;;;5.40;92.00;;;;;;6121695;23;20637;-85
2022/03/03 05:26:19;;;;;;;22.50;14.23;;;5.50;91.60;;;;;;6121652;23;20152;-86
2022/03/03 05:28:45;;;;;;;24.43;14.27;;;5.50;91.30;;;;;;6121186;23;20564;-86
2022/03/03 05:31:12;;;;;;;29.20;14.67;;;5.40;91.40;;;;;;6121727;23;20154;-84
2022/03/03 05:33:38;;;;;;;23.27;13.40;;;5.60;91.00;;;;;;6121591;23;20167;-86
2022/03/03 05:36:08;;;;;;;26.27;14.03;;;5.40;91.20;;;;;;6121825;23;20158;-87
2022/03/03 05:38:40;;;;;;;21.97;13.40;;;5.40;91.10;;;;;;6121396;23;20147;-85
2022/03/03 05:41:08;;;;;;;25.70;14.53;;;5.30;91.40;;;;;;6122062;23;20151;-87
2022/03/03 05:43:35;;;;;;;22.77;13.73;;;5.30;91.40;;;;;;6121521;23;20153;-86
2022/03/03 05:46:03;;;;;;;24.37;14.87;;;5.30;91.60;;;;;;6121965;23;20259;-86
2022/03/03 05:48:32;;;;;;;23.07;14.40;;;5.20;91.60;;;;;;6121783;23;20175;-86
2022/03/03 05:50:59;;;;;;;26.80;15.50;;;5.20;91.50;;;;;;6121429;23;20187;-86
2022/03/03 05:53:31;;;;;;;23.80;14.83;;;5.40;91.30;;;;;;6121753;23;20143;-86
2022/03/03 05:56:06;;;;;;;25.20;15.30;;;5.30;91.40;;;;;;6121385;23;20178;-86
2022/03/03 05:59:04;;;;;;;27.20;14.43;;;5.30;91.40;;;;;;6121275;23;20583;-86
2022/03/03 06:01:31;;;;;;;27.50;15.87;;;5.30;91.40;;;;;;6104533;23;20151;-86
2022/03/03 06:04:00;;;;;;;24.03;15.50;;;5.20;91.70;;;;;;6121530;23;20233;-86
2022/03/03 06:06:28;;;;;;;25.47;15.13;;;5.10;92.00;;;;;;6122033;23;20154;-86
2022/03/03 06:09:15;;;;;;;23.00;14.67;;;5.00;92.10;;;;;;6121396;23;20184;-86
2022/03/03 06:12:06;;;;;;;26.57;15.07;;;5.00;92.40;;;;;;6121680;23;20159;-87
2022/03/03 06:14:44;;;;;;;27.87;14.13;;;4.90;92.60;;;;;;6121923;23;20669;-87
2022/03/03 06:17:12;;;;;;;26.57;15.43;;;5.00;92.30;;;;;;6122170;23;20172;-86
2022/03/03 06:19:42;;;;;;;25.40;15.03;;;4.90;92.70;;;;;;6121654;23;20598;-86
2022/03/03 06:22:12;;;;;;;25.37;14.93;;;4.90;92.70;;;;;;6121812;23;20208;-86
2022/03/03 06:24:38;;;;;;;25.97;14.80;;;4.90;92.80;;;;;;6121770;23;20162;-86
2022/03/03 06:27:06;;;;;;;28.60;15.17;;;4.90;92.90;;;;;;6122474;23;20520;-84
2022/03/03 06:29:34;;;;;;;25.00;14.60;;;4.90;93.20;;;;;;6120910;23;20181;-85
2022/03/03 06:32:01;;;;;;;24.93;14.93;;;5.00;93.10;;;;;;6120852;23;20158;-84
2022/03/03 06:34:27;;;;;;;27.10;14.80;;;4.80;93.20;;;;;;6120893;23;20157;-84
2022/03/03 06:36:53;;;;;;;27.03;15.80;;;4.70;93.50;;;;;;6121092;23;20147;-85
2022/03/03 06:39:20;;;;;;;27.83;15.93;;;4.70;93.70;;;;;;6120872;23;20252;-85
2022/03/03 06:41:46;;;;;;;29.77;14.90;;;4.80;93.50;;;;;;6121104;23;20291;-84
2022/03/03 06:44:14;;;;;;;25.63;14.93;;;4.80;93.50;;;;;;6121004;23;20182;-85
2022/03/03 06:46:41;;;;;;;25.80;15.00;;;4.80;93.60;;;;;;6120633;23;20173;-85
2022/03/03 06:49:06;;;;;;;33.90;16.80;;;4.90;93.70;;;;;;6120900;23;20166;-84
2022/03/03 06:51:43;;;;;;;28.17;15.60;;;4.80;93.60;;;;;;6121856;23;20201;-84
2022/03/03 06:54:17;;;;;;;26.37;15.40;;;4.70;94.20;;;;;;6123218;23;20215;-84
2022/03/03 06:56:57;;;;;;;32.20;15.03;;;4.70;94.50;;;;;;6123285;23;20138;-84
2022/03/03 06:59:26;;;;;;;34.37;16.40;;;4.60;94.30;;;;;;6121370;23;20229;-84
2022/03/03 07:01:54;;;;;;;31.27;15.80;;;4.70;94.40;;;;;;6121678;23;20485;-85
2022/03/03 07:04:23;;;;;;;29.97;15.77;;;4.70;94.50;;;;;;6121618;23;20143;-83
2022/03/03 07:06:50;;;;;;;26.27;14.93;;;4.70;94.90;;;;;;6121926;23;20221;-83
2022/03/03 07:09:19;;;;;;;26.57;15.27;;;4.70;95.50;;;;;;6121295;23;20178;-84
2022/03/03 07:11:45;;;;;;;26.50;15.70;;;4.80;95.80;;;;;;6121797;23;20201;-85
2022/03/03 07:14:13;;;;;;;23.43;14.93;;;4.70;96.00;;;;;;6123182;23;20144;-85
2022/03/03 07:17:00;;;;;;;23.20;14.63;;;4.80;96.00;;;;;;6121838;23;20155;-85
2022/03/03 07:19:34;;;;;;;26.47;14.97;;;4.90;95.70;;;;;;6122502;23;20142;-85
2022/03/03 07:22:18;;;;;;;27.97;15.87;;;4.90;95.00;;;;;;6121795;23;20154;-85
2022/03/03 07:25:02;;;;;;;25.73;15.90;;;5.10;94.70;;;;;;6121557;23;20156;-86
2022/03/03 07:27:29;;;;;;;28.37;14.53;;;5.30;93.90;;;;;;6121415;23;20415;-85
2022/03/03 07:30:01;;;;;;;29.70;14.93;;;5.40;93.70;;;;;;6122689;23;20178;-86
2022/03/03 07:33:06;;;;;;;74.53;19.57;;;5.40;93.70;;;;;;6122041;23;20197;-83
2022/03/03 07:35:35;;;;;;;96.13;20.27;;;5.40;93.70;;;;;;6121318;23;20613;-85
2022/03/03 07:38:13;;;;;;;31.33;16.30;;;5.30;94.00;;;;;;6121508;23;20181;-85
2022/03/03 07:40:42;;;;;;;25.70;14.70;;;5.50;94.10;;;;;;6121661;23;20201;-84
2022/03/03 07:43:13;;;;;;;27.30;14.57;;;5.50;94.20;;;;;;6120640;23;20151;-86
2022/03/03 07:45:44;;;;;;;26.90;14.90;;;5.60;93.30;;;;;;6121243;23;20166;-87
2022/03/03 07:48:13;;;;;;;24.13;15.10;;;5.70;93.30;;;;;;6122896;23;20221;-85
2022/03/03 07:50:40;;;;;;;26.90;15.33;;;5.70;93.10;;;;;;6124230;23;20162;-86
2022/03/03 07:53:11;;;;;;;26.47;14.40;;;5.90;92.80;;;;;;6121866;23;20235;-86
2022/03/03 07:55:42;;;;;;;27.20;14.87;;;6.10;92.50;;;;;;6121984;23;20155;-86
2022/03/03 07:58:17;;;;;;;28.10;14.90;;;6.20;92.10;;;;;;6121924;23;20162;-84
2022/03/03 08:00:48;;;;;;;27.63;15.23;;;6.10;92.30;;;;;;6121792;23;20147;-85
2022/03/03 08:03:20;;;;;;;32.37;15.20;;;6.30;92.20;;;;;;6122258;23;20651;-85
2022/03/03 08:05:49;;;;;;;28.97;14.43;;;6.30;92.10;;;;;;6121776;23;20167;-86
2022/03/03 08:08:20;;;;;;;25.00;14.70;;;6.40;91.80;;;;;;6121520;23;20209;-86
2022/03/03 08:10:46;;;;;;;24.87;14.33;;;6.60;91.60;;;;;;6122035;23;20245;-86
2022/03/03 08:13:16;;;;;;;27.33;15.37;;;6.60;91.40;;;;;;6122274;23;20152;-87
2022/03/03 08:15:47;;;;;;;34.80;15.50;;;6.80;91.10;;;;;;6122218;23;20148;-86
2022/03/03 08:18:14;;;;;;;26.03;14.67;;;6.80;91.00;;;;;;6117909;23;20180;-86
2022/03/03 08:20:42;;;;;;;25.20;14.87;;;6.90;90.90;;;;;;6122081;23;20152;-86
2022/03/03 08:23:08;;;;;;;31.63;15.73;;;6.90;90.60;;;;;;6120893;23;20155;-86
2022/03/03 08:25:35;;;;;;;26.40;15.33;;;7.00;90.50;;;;;;6121655;23;20163;-86
2022/03/03 08:28:02;;;;;;;24.77;14.17;;;7.20;90.40;;;;;;6121610;23;20156;-86
2022/03/03 08:30:29;;;;;;;31.90;19.87;;;7.30;89.70;;;;;;6121913;23;20205;-86
2022/03/03 08:33:52;;;;;;;36.63;22.70;;;7.20;90.00;;;;;;6121522;23;20203;-88
2022/03/03 08:36:47;;;;;;;34.40;21.93;;;7.20;90.30;;;;;;6038908;23;20165;-87
2022/03/03 08:39:15;;;;;;;40.97;21.97;;;7.40;89.70;;;;;;6038600;23;20613;-84
2022/03/03 08:41:42;;;;;;;37.73;21.90;;;7.40;89.80;;;;;;6104878;23;20239;-87
2022/03/03 08:44:10;;;;;;;35.17;17.90;;;7.30;89.90;;;;;;6122006;23;20151;-84
2022/03/03 08:46:40;;;;;;;27.47;16.47;;;7.50;89.60;;;;;;6122697;23;20196;-92
2022/03/03 08:49:14;;;;;;;31.60;15.43;;;7.60;89.50;;;;;;6122864;23;20180;-93
2022/03/03 08:51:40;;;;;;;28.57;15.97;;;7.60;89.60;;;;;;6123202;23;20149;-93
2022/03/03 08:54:08;;;;;;;26.50;14.30;;;7.70;89.10;;;;;;6122718;23;20167;-92
2022/03/03 08:56:37;;;;;;;26.07;15.43;;;7.70;89.10;;;;;;6122386;23;20475;-92
2022/03/03 08:59:03;;;;;;;22.73;14.07;;;7.80;89.20;;;;;;6123253;23;20211;-93
2022/03/03 09:01:30;;;;;;;22.63;13.70;;;7.90;88.80;;;;;;6122706;23;20172;-92
2022/03/03 09:04:20;;;;;;;27.53;14.77;;;8.30;87.40;;;;;;6123005;23;21199;-93
2022/03/03 09:06:49;;;;;;;22.80;14.17;;;8.30;86.90;;;;;;6122872;23;20521;-91
2022/03/03 09:09:18;;;;;;;25.30;14.37;;;8.30;87.00;;;;;;6125009;23;20189;-91
2022/03/03 09:11:44;;;;;;;25.93;14.40;;;8.50;86.10;;;;;;6126635;23;20155;-93
2022/03/03 09:14:11;;;;;;;28.80;14.60;;;8.60;85.00;;;;;;6127785;23;20251;-93
2022/03/03 09:16:40;;;;;;;22.60;14.30;;;8.60;85.00;;;;;;6122609;23;20183;-95
2022/03/03 09:19:08;;;;;;;25.87;15.17;;;8.70;85.60;;;;;;6124120;23;20146;-94
2022/03/03 09:21:37;;;;;;;22.63;13.80;;;8.90;84.30;;;;;;6122447;23;20146;-94
2022/03/03 09:24:06;;;;;;;24.37;13.90;;;8.80;84.40;;;;;;6122215;23;20149;-94
2022/03/03 09:26:33;;;;;;;27.20;14.20;;;8.60;84.90;;;;;;6121998;23;20152;-94
2022/03/03 09:29:03;;;;;;;27.67;15.30;;;8.70;85.30;;;;;;6121057;23;20841;-93
2022/03/03 09:31:28;;;;;;;25.53;13.40;;;8.60;85.00;;;;;;6121758;23;20190;-94
2022/03/03 09:33:57;;;;;;;22.10;13.60;;;8.70;85.80;;;;;;6120988;23;20180;-93
2022/03/03 09:36:25;;;;;;;26.60;13.77;;;9.00;85.10;;;;;;6122194;23;20149;-94
2022/03/03 09:38:52;;;;;;;23.03;13.00;;;9.00;85.00;;;;;;6121978;23;20157;-95
2022/03/03 09:41:18;;;;;;;23.53;14.23;;;9.30;84.30;;;;;;6122256;23;20187;-94
2022/03/03 09:43:44;;;;;;;24.00;13.40;;;9.30;84.20;;;;;;6122182;23;20156;-92
2022/03/03 09:46:11;;;;;;;23.13;13.73;;;9.30;84.40;;;;;;6121336;23;20245;-94
2022/03/03 09:48:40;;;;;;;23.50;13.83;;;9.30;84.60;;;;;;6121817;23;20184;-94
2022/03/03 09:51:07;;;;;;;24.57;14.87;;;9.30;84.30;;;;;;6121379;23;20146;-94
2022/03/03 09:53:39;;;;;;;25.67;14.63;;;9.50;84.50;;;;;;6122269;23;20146;-94
2022/03/03 09:56:13;;;;;;;26.87;13.60;;;9.60;83.50;;;;;;6122707;23;20142;-95
2022/03/03 09:58:42;;;;;;;23.87;14.43;;;9.50;84.60;;;;;;6121942;23;20586;-94
2022/03/03 10:01:08;;;;;;;25.50;15.17;;;9.50;84.10;;;;;;6121984;23;20154;-94
2022/03/03 10:03:37;;;;;;;25.23;14.57;;;9.50;84.70;;;;;;6122039;23;20146;-94
2022/03/03 10:06:10;;;;;;;23.50;14.70;;;9.70;84.60;;;;;;6121954;23;20150;-93
2022/03/03 10:08:39;;;;;;;28.47;14.73;;;9.70;85.80;;;;;;6121948;23;20556;-93
2022/03/03 10:11:09;;;;;;;25.43;14.73;;;9.70;85.10;;;;;;6122116;23;20146;-93
2022/03/03 10:13:46;;;;;;;22.30;14.57;;;9.80;83.80;;;;;;6121871;23;20189;-91
2022/03/03 10:16:19;;;;;;;24.23;14.63;;;9.90;84.00;;;;;;6121978;23;20221;-93
2022/03/03 10:19:03;;;;;;;26.77;14.60;;;10.00;84.30;;;;;;6121903;23;20225;-93
2022/03/03 10:21:32;;;;;;;26.60;15.10;;;10.10;84.30;;;;;;6122473;23;20150;-93
2022/03/03 10:24:19;;;;;;;28.33;16.07;;;10.10;84.00;;;;;;6121985;23;20233;-92
2022/03/03 10:26:47;;;;;;;27.10;14.60;;;10.20;83.80;;;;;;6121950;23;20184;-92
2022/03/03 10:29:21;;;;;;;29.27;16.27;;;10.10;84.20;;;;;;6121954;23;20181;-92
2022/03/03 10:31:56;;;;;;;26.73;15.90;;;10.30;84.30;;;;;;6121940;23;20138;-95
2022/03/03 10:34:23;;;;;;;31.70;18.37;;;10.50;84.40;;;;;;6121942;23;20176;-93
2022/03/03 10:37:04;;;;;;;33.47;17.30;;;10.50;84.10;;;;;;6122041;23;20463;-92
2022/03/03 10:39:48;;;;;;;34.53;17.57;;;10.70;83.50;;;;;;6122244;23;20150;-93
2022/03/03 10:42:19;;;;;;;31.87;19.13;;;10.60;86.00;;;;;;6122022;23;20173;-91
2022/03/03 10:44:48;;;;;;;29.33;16.90;;;10.70;85.40;;;;;;6122241;23;20153;-94
2022/03/03 10:47:18;;;;;;;37.57;18.60;;;10.80;86.00;;;;;;6122107;23;20170;-92
2022/03/03 10:49:48;;;;;;;31.77;17.80;;;10.80;86.00;;;;;;6122102;23;20192;-91
2022/03/03 10:52:18;;;;;;;31.03;16.57;;;10.90;85.40;;;;;;6122549;23;20150;-89
2022/03/03 10:55:02;;;;;;;30.00;17.57;;;10.90;86.10;;;;;;6122748;23;20149;-92
2022/03/03 10:57:38;;;;;;;25.93;16.13;;;11.10;86.40;;;;;;6122622;23;20158;-91
2022/03/03 11:00:20;;;;;;;28.60;16.60;;;11.30;85.70;;;;;;6124720;23;20588;-91
2022/03/03 11:03:03;;;;;;;;;;;;;;;;;;;;;
2022/03/03 11:05:50;;;;;;;;;;;;;;;;;;;;;
2022/03/03 11:08:32;;;;;;;31.87;17.63;;;12.90;84.10;;;;;;6123257;23;20228;-92
2022/03/03 11:11:04;;;;;;;26.30;17.13;;;14.10;82.70;;;;;;6122257;23;20517;-92
2022/03/03 11:13:34;;;;;;;24.47;16.50;;;15.30;79.00;;;;;;6122416;23;20154;-92
2022/03/03 11:16:41;;;;;;;26.10;16.73;;;16.50;76.80;;;;;;6121861;23;20476;-93
2022/03/03 11:19:30;;;;;;;25.40;15.60;;;17.50;73.50;;;;;;6118852;23;20211;-92
2022/03/03 11:22:02;;;;;;;29.60;17.07;;;18.50;71.80;;;;;;6084564;23;20571;-93
2022/03/03 11:25:08;;;;;;;23.13;15.63;;;19.50;68.50;;;;;;6123942;23;20504;-93
2022/03/03 11:31:57;;;;;;;;;;;;;;;;;;;;;
2022/03/03 11:38:22;;;;;;;;;;;;;;;;;;;;;
2022/03/03 11:45:00;;;;;;;22.10;15.37;;;22.20;60.10;;;;;;6102000;23;20236;-93
2022/03/03 11:55:29;;;;;;;;;;;;;;;;;;;;;
2022/03/03 12:06:43;;;;;;;;;;;;;;;;;;;;;
2022/03/03 12:16:13;;;;;;;;;;;;;;;;;;;;;
2022/03/03 12:19:20;;;;;;;;;;;;;;;;;;;;;
2022/03/03 12:44:12;;;;;;;;;;;;;;;;;;;;;
2022/03/03 16:21:00;;;;;;;22.77;16.37;;;26.40;48.50;;;;;;6137474;23;20180;-92
2022/03/03 16:31:47;;;;;;;;;;;;;;;;;;;;;
2022/03/03 16:34:53;;;;;;;26.43;16.63;;;25.60;48.60;;;;;;6039542;23;20219;-92
2022/03/03 16:40:59;;;;;;;27.93;17.80;;;24.80;49.00;;;;;;6116016;23;20165;-92
2022/03/03 16:43:32;;;;;;;28.43;18.03;;;24.30;49.60;;;;;;6125152;23;20185;-92
2022/03/03 16:46:18;;;;;;;29.87;18.43;;;23.50;50.50;;;;;;6101482;23;20205;-92
2022/03/03 16:49:25;;;;;;;29.17;18.00;;;22.80;51.50;;;;;;6100422;23;20237;-91
2022/03/03 16:52:19;;;;;;;25.97;17.17;;;22.30;51.80;;;;;;6189739;23;20214;-91
2022/03/03 16:54:55;;;;;;;31.30;17.97;;;21.80;52.50;;;;;;6216377;23;20219;-91
2022/03/03 16:57:23;;;;;;;32.60;17.50;;;21.30;53.10;;;;;;6190405;23;20152;-91
2022/03/03 17:00:00;;;;;;;26.57;17.77;;;20.70;53.40;;;;;;6190462;23;20504;-90
2022/03/03 17:02:29;;;;;;;27.27;16.77;;;20.30;53.90;;;;;;6189896;23;20144;-93
2022/03/03 17:05:12;;;;;;;27.80;17.47;;;20.10;54.10;;;;;;6190746;23;20531;-91
2022/03/03 17:07:40;;;;;;;24.80;16.20;;;19.80;54.50;;;;;;6190680;23;20148;-91
2022/03/03 17:10:09;;;;;;;30.53;16.60;;;19.30;55.10;;;;;;6190614;23;20526;-90
2022/03/03 17:12:39;;;;;;;28.30;15.60;;;18.90;55.20;;;;;;6190557;23;20148;-91
2022/03/03 17:15:14;;;;;;;27.67;15.97;;;18.60;55.60;;;;;;6191158;23;20147;-90
2022/03/03 17:17:40;;;;;;;29.50;16.10;;;18.60;55.00;;;;;;6190919;23;20170;-93
2022/03/03 17:20:12;;;;;;;22.97;15.00;;;18.30;55.70;;;;;;6190206;23;20615;-88
2022/03/03 17:22:50;;;;;;;27.30;16.00;;;18.10;56.00;;;;;;6190435;23;20144;-90
2022/03/03 17:25:24;;;;;;;28.00;15.97;;;18.10;55.80;;;;;;6190250;23;20157;-94
2022/03/03 17:27:51;;;;;;;25.77;14.67;;;17.80;56.10;;;;;;6190322;23;20159;-92
2022/03/03 17:30:20;;;;;;;28.57;15.43;;;17.60;56.50;;;;;;6190738;23;20160;-92
2022/03/03 17:32:49;;;;;;;29.10;15.03;;;17.60;56.40;;;;;;6190475;23;20473;-90
2022/03/03 17:35:18;;;;;;;28.03;15.83;;;17.30;56.80;;;;;;6191181;23;20157;-88
2022/03/03 17:37:45;;;;;;;26.10;15.27;;;17.20;56.40;;;;;;6190427;23;20229;-92
2022/03/03 17:40:21;;;;;;;25.97;16.00;;;17.10;56.40;;;;;;6191302;23;20190;-89
2022/03/03 17:42:50;;;;;;;24.93;16.07;;;17.30;55.40;;;;;;6190996;23;20226;-90
2022/03/03 17:45:19;;;;;;;30.47;15.93;;;17.30;54.50;;;;;;6191493;23;20623;-89
2022/03/03 17:47:45;;;;;;;26.63;15.57;;;17.20;54.30;;;;;;6192404;23;20153;-89